createdAt,value
2023-03-23T15:59:13.722Z,100014.80
2023-03-23T16:01:44.229Z,100023.60
2023-03-23T16:04:19.152Z,100018.00
2023-03-23T16:06:48.523Z,100009.60
2023-03-23T16:09:20.958Z,100002.40
2023-03-23T16:11:49.788Z,100000.40
2023-03-23T16:14:18.486Z,100013.00
2023-03-23T16:16:51.270Z,100017.20
2023-03-23T16:19:24.801Z,100013.40
2023-03-23T16:21:53.456Z,100013.60
2023-03-23T16:24:22.440Z,100013.80
2023-03-23T16:26:51.125Z,100020.80
2023-03-23T16:29:39.894Z,100020.40
2023-03-23T16:32:08.678Z,100023.80
2023-03-23T16:34:38.636Z,100031.60
2023-03-23T16:37:07.682Z,100034.60
2023-03-23T16:39:36.388Z,100044.40
2023-03-23T16:42:05.158Z,100046.80
2023-03-23T16:44:33.843Z,100049.60
2023-03-23T16:47:02.636Z,100059.20
2023-03-23T16:49:31.527Z,100066.00
2023-03-23T16:52:00.219Z,100077.20
2023-03-23T16:54:29.104Z,100072.60
2023-03-23T16:56:58.030Z,100074.60
2023-03-23T16:59:29.371Z,100067.80
2023-03-23T17:02:03.752Z,100069.00
2023-03-23T17:04:34.252Z,100064.00
2023-03-23T17:07:03.395Z,100055.40
2023-03-23T17:09:32.086Z,100056.00
2023-03-23T17:12:01.087Z,100053.40
2023-03-23T17:14:29.863Z,100073.80
2023-03-23T17:16:59.370Z,100085.80
2023-03-23T17:19:28.217Z,100092.00
2023-03-23T17:21:57.150Z,100093.20
2023-03-23T17:24:27.312Z,100091.40
2023-03-23T17:26:56.470Z,100091.00
2023-03-23T17:29:25.060Z,100098.00
2023-03-23T17:31:53.788Z,100100.80
2023-03-23T17:34:22.845Z,100102.80
2023-03-23T17:36:51.533Z,100112.60
2023-03-23T17:39:20.790Z,100119.80
2023-03-23T17:41:49.515Z,100116.20
2023-03-23T17:44:18.876Z,100117.60
2023-03-23T17:46:47.510Z,100125.80
2023-03-23T17:49:16.807Z,100134.80
2023-03-23T17:51:45.717Z,100135.20
2023-03-23T17:54:14.494Z,100135.80
2023-03-23T17:56:43.087Z,100133.00
2023-03-23T17:59:12.630Z,100129.80
2023-03-23T18:01:41.266Z,100120.60
2023-03-23T18:04:10.052Z,100123.40
2023-03-23T18:06:38.737Z,100122.40
2023-03-23T18:09:07.529Z,100114.00
2023-03-23T18:11:36.114Z,100116.60
2023-03-23T18:14:04.900Z,100113.00
2023-03-23T18:16:33.775Z,100115.20
2023-03-23T18:19:02.805Z,100117.60
2023-03-23T18:21:31.473Z,100125.40
2023-03-23T18:24:00.357Z,100129.40
2023-03-23T18:26:29.891Z,100130.00
2023-03-23T18:28:58.557Z,100129.80
2023-03-23T18:31:27.363Z,100124.60
2023-03-23T18:33:56.414Z,100120.20
2023-03-23T18:36:27.843Z,100129.40
2023-03-23T18:38:57.824Z,100124.80
2023-03-23T18:41:27.320Z,100125.40
2023-03-23T18:43:57.810Z,100127.40
2023-03-23T18:46:27.198Z,100121.80
2023-03-23T18:48:56.359Z,100124.40
2023-03-23T18:51:26.402Z,100136.60
2023-03-23T18:53:55.183Z,100130.80
2023-03-23T18:56:24.891Z,100127.60
2023-03-23T18:58:54.352Z,100140.80
2023-03-23T19:01:23.082Z,100151.60
2023-03-23T19:03:51.848Z,100159.80
2023-03-23T19:06:26.706Z,100174.40
2023-03-23T19:08:55.980Z,100171.20
2023-03-23T19:11:27.478Z,100169.80
2023-03-23T19:14:02.598Z,100175.20
2023-03-23T19:16:36.212Z,100178.20
2023-03-23T19:19:08.509Z,100178.40
2023-03-23T19:21:40.226Z,100176.20
2023-03-23T19:24:09.814Z,100173.00
2023-03-23T19:26:43.578Z,100177.80
2023-03-23T19:29:26.045Z,100178.00
2023-03-23T19:31:57.456Z,100171.60
2023-03-23T19:34:28.405Z,100169.60
2023-03-23T19:37:05.547Z,100167.80
2023-03-23T19:39:36.334Z,100168.00
2023-03-23T19:42:05.549Z,100171.20
2023-03-23T19:44:35.028Z,100178.00
2023-03-23T19:47:04.287Z,100178.00
2023-03-23T19:49:33.036Z,100181.00
2023-03-23T19:52:09.118Z,100180.20
2023-03-23T19:54:40.935Z,100179.20
2023-03-23T19:57:10.725Z,100178.60
2023-03-23T19:59:39.610Z,100177.80
2023-03-23T20:02:12.891Z,100177.40
2023-03-23T20:04:42.111Z,100184.60
2023-03-23T20:07:10.777Z,100189.20
2023-03-23T20:09:39.626Z,100188.60
2023-03-23T20:12:09.674Z,100190.00
2023-03-23T20:14:44.336Z,100198.20
2023-03-23T20:17:14.904Z,100194.00
2023-03-23T20:19:44.676Z,100192.40
2023-03-23T20:22:14.561Z,100197.40
2023-03-23T20:24:45.411Z,100197.00
2023-03-23T20:27:17.489Z,100189.80
2023-03-23T20:29:46.248Z,100188.60
2023-03-23T20:32:15.933Z,100199.60
2023-03-23T20:34:49.548Z,100200.40
2023-03-23T20:37:21.139Z,100201.20
2023-03-23T20:39:50.085Z,100198.20
2023-03-23T20:42:18.767Z,100200.40
2023-03-23T20:44:47.457Z,100196.20
2023-03-23T20:47:15.939Z,100199.60
2023-03-23T20:49:53.200Z,100204.60
2023-03-23T20:52:26.191Z,100212.40
2023-03-23T20:54:56.744Z,100208.60
2023-03-23T20:57:25.229Z,100216.00
2023-03-23T20:59:55.809Z,100213.40
2023-03-23T21:02:30.251Z,100213.60
2023-03-23T21:04:58.767Z,100211.00
2023-03-23T21:07:27.570Z,100214.60
2023-03-23T21:09:56.452Z,100211.60
2023-03-23T21:12:25.549Z,100207.20
2023-03-23T21:14:55.084Z,100202.80
2023-03-23T21:17:23.843Z,100200.40
2023-03-23T21:19:52.829Z,100202.20
2023-03-23T21:22:21.612Z,100200.40
2023-03-23T21:24:53.793Z,100207.80
2023-03-23T21:27:22.366Z,100211.00
2023-03-23T21:29:50.952Z,100212.80
2023-03-23T21:32:19.540Z,100213.20
2023-03-23T21:34:48.230Z,100204.40
2023-03-23T21:37:16.915Z,100207.60
2023-03-23T21:39:46.377Z,100206.20
2023-03-23T21:42:15.000Z,100207.80
2023-03-23T21:44:43.993Z,100209.20
2023-03-23T21:47:13.396Z,100214.80
2023-03-23T21:49:42.290Z,100214.20
2023-03-23T21:52:10.975Z,100209.40
2023-03-23T21:54:41.507Z,100209.40
2023-03-23T21:57:10.196Z,100209.60
2023-03-23T21:59:38.879Z,100206.00
2023-03-23T22:02:12.132Z,100200.20
2023-03-23T22:04:42.165Z,100197.20
2023-03-23T22:07:12.834Z,100198.40
2023-03-23T22:09:45.097Z,100192.60
2023-03-23T22:12:14.909Z,100186.60
2023-03-23T22:14:44.071Z,100186.60
2023-03-23T22:17:12.591Z,100184.40
2023-03-23T22:19:41.887Z,100187.20
2023-03-23T22:22:10.882Z,100184.00
2023-03-23T22:24:40.500Z,100189.60
2023-03-23T22:27:10.105Z,100184.40
2023-03-23T22:29:40.949Z,100189.00
2023-03-23T22:32:09.950Z,100190.00
2023-03-23T22:34:39.141Z,100188.00
2023-03-23T22:37:08.640Z,100185.00
2023-03-23T22:39:37.330Z,100184.40
2023-03-23T22:42:06.228Z,100176.80
2023-03-23T22:44:34.807Z,100170.20
2023-03-23T22:47:03.492Z,100170.40
2023-03-23T22:49:33.103Z,100172.80
2023-03-23T22:52:01.706Z,100169.40
2023-03-23T22:54:30.480Z,100178.80
2023-03-23T22:56:59.090Z,100171.60
2023-03-23T22:59:27.756Z,100170.60
2023-03-23T23:01:56.464Z,100169.00
2023-03-23T23:04:25.263Z,100166.80
2023-03-23T23:07:06.433Z,100162.60
2023-03-23T23:09:45.699Z,100164.60
2023-03-23T23:12:15.657Z,100165.40
2023-03-23T23:14:45.746Z,100164.60
2023-03-23T23:17:15.045Z,100160.40
2023-03-23T23:19:43.868Z,100152.60
2023-03-23T23:22:19.059Z,100153.60
2023-03-23T23:24:48.414Z,100157.00
2023-03-23T23:27:18.331Z,100154.00
2023-03-23T23:29:47.315Z,100148.80
2023-03-23T23:32:17.227Z,100149.00
2023-03-23T23:34:47.153Z,100149.40
2023-03-23T23:37:16.042Z,100148.80
2023-03-23T23:39:45.574Z,100144.00
2023-03-23T23:42:14.137Z,100142.80
2023-03-23T23:44:45.516Z,100140.20
2023-03-23T23:47:14.066Z,100142.00
2023-03-23T23:49:42.656Z,100136.80
2023-03-23T23:52:11.247Z,100135.60
2023-03-23T23:54:42.830Z,100129.80
2023-03-23T23:57:11.445Z,100131.20
2023-03-23T23:59:41.321Z,100133.20
